Time;durP1;ratioP1;P1;durP2;ratioP2;P2;SDS_P1;SDS_P2;PMS_P1;PMS_P2;Temp;Humidity;BMP_temperature;BMP_pressure;BME280_temperature;BME280_humidity;BME280_pressure;Samples;Min_cycle;Max_cycle;Signal;HPM_P1;HPM_P2
2021/06/09 00:00:07;;;;;;;2.20;1.30;;;13.70;99.90;;;;;;5115078;28;20923;-89
2021/06/09 00:02:33;;;;;;;2.87;1.73;;;13.60;99.90;;;;;;5115502;28;20184;-89
2021/06/09 00:04:58;;;;;;;2.27;1.67;;;13.60;99.90;;;;;;5115289;28;20406;-89
2021/06/09 00:07:24;;;;;;;2.70;1.77;;;13.70;99.90;;;;;;5114979;28;20201;-90
2021/06/09 00:09:50;;;;;;;3.20;2.03;;;13.70;99.90;;;;;;5115917;28;20256;-92
2021/06/09 00:12:15;;;;;;;3.13;1.77;;;13.60;99.90;;;;;;5116626;28;20217;-90
2021/06/09 00:14:41;;;;;;;3.57;1.00;;;13.60;99.90;;;;;;5116650;28;20169;-91
2021/06/09 00:17:07;;;;;;;2.03;1.40;;;13.60;99.90;;;;;;5115350;28;20219;-90
2021/06/09 00:19:32;;;;;;;1.90;1.30;;;13.40;99.90;;;;;;5116140;28;20554;-92
2021/06/09 00:21:58;;;;;;;3.03;2.10;;;13.40;99.90;;;;;;5115723;28;20180;-91
2021/06/09 00:24:24;;;;;;;1.70;1.50;;;13.40;99.90;;;;;;5115374;28;20276;-91
2021/06/09 00:26:51;;;;;;;1.97;1.33;;;13.40;99.90;;;;;;5115669;28;20170;-91
2021/06/09 00:29:18;;;;;;;2.13;1.63;;;13.30;99.90;;;;;;5105784;28;20924;-90
2021/06/09 00:31:44;;;;;;;2.87;2.00;;;13.40;99.90;;;;;;5077568;28;20427;-90
2021/06/09 00:34:10;;;;;;;1.90;1.07;;;13.50;99.90;;;;;;5093173;28;20463;-90
2021/06/09 00:36:36;;;;;;;2.20;1.40;;;13.30;99.90;;;;;;5088355;28;20190;-89
2021/06/09 00:39:03;;;;;;;1.77;0.80;;;13.10;99.90;;;;;;5080433;28;20179;-89
2021/06/09 00:41:28;;;;;;;2.70;1.50;;;13.20;99.90;;;;;;5091761;28;20476;-87
2021/06/09 00:43:55;;;;;;;2.73;1.37;;;13.10;99.90;;;;;;5094109;28;20783;-91
2021/06/09 00:46:21;;;;;;;2.40;1.20;;;13.10;99.90;;;;;;5094583;28;20186;-90
2021/06/09 00:48:47;;;;;;;1.87;1.53;;;13.20;99.90;;;;;;5093039;28;20481;-89
2021/06/09 00:51:16;;;;;;;1.60;1.13;;;13.10;99.90;;;;;;5093040;28;20246;-89
2021/06/09 00:53:58;;;;;;;2.30;1.30;;;13.10;99.90;;;;;;5090141;28;20535;-90
2021/06/09 00:56:25;;;;;;;2.60;1.60;;;13.10;99.90;;;;;;5094512;28;20818;-89
2021/06/09 00:58:52;;;;;;;2.70;1.73;;;13.00;99.90;;;;;;5093142;28;20417;-90
2021/06/09 01:01:19;;;;;;;3.10;1.60;;;12.90;99.90;;;;;;5093426;28;20415;-89
2021/06/09 01:03:46;;;;;;;3.97;1.87;;;12.90;99.90;;;;;;5093736;28;20423;-90
2021/06/09 01:06:13;;;;;;;4.07;1.70;;;12.90;99.90;;;;;;5093691;28;20481;-91
2021/06/09 01:08:41;;;;;;;2.37;1.30;;;14.00;99.90;;;;;;5093230;28;20516;-92
2021/06/09 01:11:10;;;;;;;2.70;1.30;;;12.80;99.90;;;;;;5093402;28;20908;-92
2021/06/09 01:13:35;;;;;;;3.20;1.70;;;12.80;99.90;;;;;;5093567;28;20424;-90
2021/06/09 01:16:01;;;;;;;1.70;1.17;;;12.80;99.90;;;;;;5093531;28;20594;-89
2021/06/09 01:18:28;;;;;;;3.27;2.10;;;12.80;99.90;;;;;;5093641;28;20237;-91
2021/06/09 01:20:56;;;;;;;3.13;1.87;;;12.80;99.90;;;;;;5093235;28;20637;-91
2021/06/09 01:23:21;;;;;;;2.47;1.67;;;12.70;99.90;;;;;;5092808;28;20428;-90
2021/06/09 01:25:48;;;;;;;2.67;1.33;;;12.70;99.90;;;;;;5093112;28;20424;-91
2021/06/09 01:28:14;;;;;;;2.77;1.10;;;12.70;99.90;;;;;;5093064;28;20258;-90
2021/06/09 01:30:41;;;;;;;2.53;1.60;;;12.60;99.90;;;;;;5093915;28;20420;-89
2021/06/09 01:33:07;;;;;;;2.77;1.50;;;12.60;99.90;;;;;;5093817;28;20198;-91
2021/06/09 01:35:34;;;;;;;4.00;2.00;;;12.50;99.90;;;;;;5093925;28;20416;-92
2021/06/09 01:37:59;;;;;;;1.97;1.13;;;12.60;99.90;;;;;;5094785;28;20435;-90
2021/06/09 01:40:26;;;;;;;2.53;1.77;;;12.60;99.90;;;;;;5094721;28;20409;-90
2021/06/09 01:42:53;;;;;;;3.43;1.60;;;12.60;99.90;;;;;;5094694;28;20539;-90
2021/06/09 01:45:27;;;;;;;2.97;1.60;;;12.50;99.90;;;;;;5093411;28;20418;-91
2021/06/09 01:47:54;;;;;;;2.33;1.80;;;12.50;99.90;;;;;;5094421;28;20469;-90
2021/06/09 01:50:20;;;;;;;3.50;2.00;;;12.40;99.90;;;;;;5094518;28;20428;-91
2021/06/09 01:52:48;;;;;;;4.40;1.33;;;12.50;99.90;;;;;;5093889;28;20418;-90
2021/06/09 01:55:15;;;;;;;2.43;1.80;;;12.40;99.90;;;;;;5093394;28;20571;-90
2021/06/09 01:57:41;;;;;;;3.10;1.77;;;12.40;99.90;;;;;;5094548;28;20408;-91
2021/06/09 02:00:11;;;;;;;3.30;1.90;;;12.30;99.90;;;;;;5094159;28;20777;-89
2021/06/09 02:02:37;;;;;;;2.50;1.40;;;12.30;99.90;;;;;;5092572;28;20202;-88
2021/06/09 02:05:08;;;;;;;3.13;1.40;;;12.30;99.90;;;;;;5091905;28;20422;-87
2021/06/09 02:07:43;;;;;;;1.47;1.37;;;12.30;99.90;;;;;;5092044;28;20459;-90
2021/06/09 02:10:12;;;;;;;3.13;1.40;;;12.30;99.90;;;;;;5092436;28;20424;-90
2021/06/09 02:12:41;;;;;;;2.87;1.60;;;12.30;99.90;;;;;;5056107;28;20427;-90
2021/06/09 02:15:07;;;;;;;2.97;1.63;;;12.30;99.90;;;;;;5055966;28;20423;-89
2021/06/09 02:17:34;;;;;;;2.07;1.27;;;12.20;99.90;;;;;;5055806;28;20446;-89
2021/06/09 02:20:00;;;;;;;2.20;1.43;;;12.30;99.90;;;;;;5055709;28;20435;-89
2021/06/09 02:22:27;;;;;;;1.80;1.40;;;12.20;99.90;;;;;;5055602;28;20427;-90
2021/06/09 02:24:53;;;;;;;4.27;1.73;;;12.30;99.90;;;;;;5055851;28;20620;-89
2021/06/09 02:27:18;;;;;;;1.97;1.30;;;12.20;99.90;;;;;;5073638;28;20490;-90
2021/06/09 02:29:44;;;;;;;2.17;1.47;;;12.10;99.90;;;;;;5056056;28;20177;-91
2021/06/09 02:32:10;;;;;;;2.20;1.70;;;12.10;99.90;;;;;;5053677;28;20208;-90
2021/06/09 02:34:40;;;;;;;4.10;1.43;;;12.20;99.90;;;;;;5036040;28;20180;-92
2021/06/09 02:37:06;;;;;;;2.17;1.50;;;12.10;99.90;;;;;;5035664;28;20566;-90
2021/06/09 02:39:32;;;;;;;3.13;0.83;;;12.10;99.90;;;;;;5038276;28;20457;-93
2021/06/09 02:41:57;;;;;;;2.40;1.23;;;12.10;99.90;;;;;;5054250;28;20771;-90
2021/06/09 02:44:23;;;;;;;1.73;1.10;;;12.00;99.90;;;;;;5053886;28;20279;-91
2021/06/09 02:46:55;;;;;;;2.10;1.27;;;12.10;99.90;;;;;;5053685;28;20178;-92
2021/06/09 02:49:24;;;;;;;2.37;1.40;;;12.10;99.90;;;;;;5053862;28;20170;-91
2021/06/09 02:51:59;;;;;;;2.10;1.00;;;12.10;99.90;;;;;;5053319;28;20408;-90
2021/06/09 02:54:42;;;;;;;3.23;1.37;;;12.00;99.90;;;;;;5053570;28;20423;-90
2021/06/09 02:57:18;;;;;;;2.80;1.20;;;12.00;99.90;;;;;;5035824;28;20419;-86
2021/06/09 03:00:06;;;;;;;2.57;1.67;;;12.10;99.90;;;;;;5052582;28;20797;-86
2021/06/09 03:02:53;;;;;;;3.30;1.57;;;12.00;99.90;;;;;;5019300;28;20416;-86
2021/06/09 03:05:27;;;;;;;2.67;1.70;;;12.00;99.90;;;;;;5034725;28;20749;-87
2021/06/09 03:08:15;;;;;;;2.80;2.00;;;11.90;99.90;;;;;;5052098;28;20962;-86
2021/06/09 03:10:59;;;;;;;2.77;1.90;;;12.00;99.90;;;;;;5052292;28;20440;-86
2021/06/09 03:14:02;;;;;;;1.93;1.50;;;12.00;99.90;;;;;;5052552;28;20413;-86
2021/06/09 03:17:00;;;;;;;2.00;1.33;;;;;;;;;;5052482;28;20480;-86
2021/06/09 03:20:07;;;;;;;2.50;1.93;;;12.10;99.90;;;;;;5001780;28;20414;-85
2021/06/09 03:22:43;;;;;;;2.40;2.00;;;12.20;99.90;;;;;;5033905;28;20451;-85
2021/06/09 03:25:17;;;;;;;2.83;1.63;;;12.40;99.90;;;;;;5056227;28;20418;-85
2021/06/09 03:27:51;;;;;;;2.63;1.47;;;12.50;99.90;;;;;;5056111;28;20990;-85
2021/06/09 03:30:18;;;;;;;2.80;2.10;;;12.40;99.90;;;;;;5056058;28;20434;-84
2021/06/09 03:33:02;;;;;;;2.43;1.30;;;12.20;99.90;;;;;;5038014;28;20463;-85
2021/06/09 03:35:53;;;;;;;2.73;1.67;;;12.10;99.90;;;;;;5056047;28;20407;-85
2021/06/09 03:38:28;;;;;;;4.53;2.50;;;12.10;99.90;;;;;;5037738;28;20427;-85
2021/06/09 03:41:00;;;;;;;1.90;1.60;;;12.10;99.90;;;;;;5055977;28;20827;-85
2021/06/09 03:43:29;;;;;;;2.60;2.40;;;12.10;99.90;;;;;;5055874;28;20405;-85
2021/06/09 03:45:56;;;;;;;2.50;1.60;;;12.10;99.90;;;;;;5055767;28;20512;-85
2021/06/09 03:48:25;;;;;;;2.30;2.10;;;12.20;99.90;;;;;;5055848;28;20502;-86
2021/06/09 03:50:55;;;;;;;3.37;2.23;;;12.20;99.90;;;;;;5055718;28;20423;-87
2021/06/09 03:53:22;;;;;;;2.20;1.57;;;12.30;99.90;;;;;;5037580;28;20423;-86
2021/06/09 03:55:50;;;;;;;2.40;1.70;;;12.40;99.90;;;;;;5037315;28;20771;-86
2021/06/09 03:58:18;;;;;;;2.33;1.47;;;12.40;99.90;;;;;;5037731;28;20428;-86
2021/06/09 04:00:46;;;;;;;2.97;1.67;;;12.40;99.90;;;;;;5055612;28;20419;-88
2021/06/09 04:03:12;;;;;;;2.50;1.27;;;12.50;99.90;;;;;;5037745;28;20424;-87
2021/06/09 04:05:41;;;;;;;1.90;1.70;;;12.60;99.90;;;;;;5055423;28;20412;-87
2021/06/09 04:08:13;;;;;;;3.33;1.07;;;12.70;99.90;;;;;;5054910;28;20815;-87
2021/06/09 04:10:42;;;;;;;3.07;1.50;;;13.00;99.90;;;;;;5043157;28;20476;-87
2021/06/09 04:13:08;;;;;;;2.70;1.73;;;13.10;99.90;;;;;;5074136;28;20419;-88
2021/06/09 04:15:34;;;;;;;1.53;0.90;;;13.70;99.90;;;;;;5074395;28;20759;-88
2021/06/09 04:18:01;;;;;;;3.90;2.03;;;13.30;99.90;;;;;;5074205;28;20180;-89
2021/06/09 04:20:28;;;;;;;3.97;2.73;;;13.40;99.90;;;;;;5074046;28;20476;-87
2021/06/09 04:22:55;;;;;;;1.60;1.13;;;13.50;99.90;;;;;;5075090;28;20915;-87
2021/06/09 04:25:21;;;;;;;1.97;1.53;;;13.60;99.90;;;;;;5074183;28;20523;-89
2021/06/09 04:27:48;;;;;;;2.20;1.50;;;13.60;99.90;;;;;;5074361;28;20609;-89
2021/06/09 04:30:19;;;;;;;2.70;1.60;;;13.70;99.90;;;;;;5074887;28;20541;-88
2021/06/09 04:33:02;;;;;;;3.83;1.80;;;13.80;99.90;;;;;;5075592;28;20497;-88
2021/06/09 04:35:35;;;;;;;2.60;2.13;;;13.90;99.90;;;;;;5074214;28;20423;-88
2021/06/09 04:38:00;;;;;;;4.13;2.53;;;14.00;99.90;;;;;;5073806;28;20445;-89
2021/06/09 04:40:27;;;;;;;2.87;2.10;;;14.10;99.90;;;;;;5074104;28;20515;-89
2021/06/09 04:42:55;;;;;;;2.80;2.00;;;14.20;99.90;;;;;;5074090;28;20186;-90
2021/06/09 04:45:22;;;;;;;4.00;2.40;;;14.30;99.90;;;;;;5074078;28;20416;-90
2021/06/09 04:47:48;;;;;;;3.10;2.57;;;14.30;99.90;;;;;;5091989;28;20966;-89
2021/06/09 04:50:18;;;;;;;2.67;2.10;;;;;;;;;;5095373;28;20413;-89
2021/06/09 04:52:44;;;;;;;3.40;2.27;;;14.50;99.90;;;;;;5093548;28;20428;-89
2021/06/09 04:55:11;;;;;;;7.03;3.20;;;14.60;99.90;;;;;;5095323;28;20411;-89
2021/06/09 04:57:37;;;;;;;3.03;2.73;;;14.60;99.90;;;;;;5094051;28;20985;-89
2021/06/09 05:00:10;;;;;;;2.50;2.10;;;14.60;99.90;;;;;;5093924;28;20411;-88
2021/06/09 05:02:36;;;;;;;5.10;2.30;;;14.70;99.90;;;;;;5093895;28;20178;-88
2021/06/09 05:05:02;;;;;;;3.67;2.73;;;14.80;99.90;;;;;;5094926;28;20476;-89
2021/06/09 05:07:28;;;;;;;5.03;3.27;;;14.80;99.90;;;;;;5093398;28;20569;-88
2021/06/09 05:09:53;;;;;;;2.60;2.37;;;14.90;99.90;;;;;;5093618;28;20416;-88
2021/06/09 05:12:28;;;;;;;3.60;2.80;;;;;;;;;;5093027;28;20222;-88
2021/06/09 05:15:05;;;;;;;3.50;2.80;;;15.20;99.90;;;;;;5094526;28;20177;-87
2021/06/09 05:17:38;;;;;;;2.27;2.03;;;15.30;99.90;;;;;;5094357;28;20396;-87
2021/06/09 05:20:07;;;;;;;2.60;2.13;;;15.40;99.90;;;;;;5092996;28;20787;-87
2021/06/09 05:22:37;;;;;;;1.80;1.43;;;15.60;99.90;;;;;;5092542;28;20410;-86
2021/06/09 05:25:07;;;;;;;3.00;2.20;;;15.80;99.90;;;;;;5092975;28;20424;-87
2021/06/09 05:27:35;;;;;;;4.17;2.27;;;16.00;99.90;;;;;;5094084;28;20492;-86
2021/06/09 05:30:02;;;;;;;2.70;2.03;;;16.20;99.90;;;;;;5092344;28;20416;-86
2021/06/09 05:32:29;;;;;;;4.30;1.90;;;16.20;69.60;;;;;;5094000;28;20521;-86
2021/06/09 05:34:56;;;;;;;2.67;2.20;;;16.30;99.90;;;;;;5093964;28;20462;-87
2021/06/09 05:37:23;;;;;;;5.70;2.57;;;16.70;99.90;;;;;;5093656;28;20421;-87
2021/06/09 05:39:49;;;;;;;2.60;1.97;;;17.00;99.90;;;;;;5092448;28;20418;-87
2021/06/09 05:42:16;;;;;;;7.50;2.07;;;17.10;99.90;;;;;;5093058;28;21018;-86
2021/06/09 05:44:43;;;;;;;3.50;2.17;;;17.20;29.60;;;;;;5092509;28;20422;-90
2021/06/09 05:47:09;;;;;;;2.27;1.63;;;17.40;43.50;;;;;;5092208;28;20928;-89
2021/06/09 05:49:35;;;;;;;3.10;1.97;;;;;;;;;;5092139;28;20430;-89
2021/06/09 05:52:01;;;;;;;2.50;1.67;;;17.80;1.00;;;;;;5093529;28;20450;-88
2021/06/09 05:54:34;;;;;;;2.50;1.80;;;18.00;1.00;;;;;;5092582;28;20509;-87
2021/06/09 05:57:04;;;;;;;2.97;1.93;;;18.10;1.00;;;;;;5092737;28;20913;-86
2021/06/09 05:59:30;;;;;;;2.47;1.87;;;18.60;1.00;;;;;;5093678;28;20424;-87
2021/06/09 06:01:55;;;;;;;2.00;1.33;;;18.70;1.00;;;;;;5093700;28;20400;-87
2021/06/09 06:04:21;;;;;;;2.40;1.43;;;18.80;1.00;;;;;;5092465;28;20181;-87
2021/06/09 06:06:48;;;;;;;3.00;2.23;;;19.10;1.00;;;;;;5091675;28;20179;-87
2021/06/09 06:09:14;;;;;;;5.83;1.97;;;19.20;1.00;;;;;;5093324;28;20481;-86
2021/06/09 06:11:42;;;;;;;3.63;2.00;;;19.20;1.00;;;;;;5091864;28;20577;-86
2021/06/09 06:14:11;;;;;;;2.00;1.80;;;19.20;1.00;;;;;;5093473;28;20177;-89
2021/06/09 06:16:38;;;;;;;1.60;1.43;;;19.10;1.00;;;;;;5093302;28;20485;-86
2021/06/09 06:19:04;;;;;;;2.10;1.87;;;19.60;1.00;;;;;;5092192;28;20848;-89
2021/06/09 06:21:30;;;;;;;2.00;1.20;;;19.50;99.90;;;;;;5092991;28;21029;-86
2021/06/09 06:23:57;;;;;;;2.27;1.57;;;19.60;1.00;;;;;;5093314;28;20414;-86
2021/06/09 06:26:24;;;;;;;3.10;1.77;;;19.80;1.00;;;;;;5093212;28;20203;-88
2021/06/09 06:28:52;;;;;;;3.83;1.60;;;20.20;1.00;;;;;;5092788;28;20477;-87
2021/06/09 06:31:26;;;;;;;2.00;1.00;;;20.50;99.90;;;;;;5093092;28;20418;-86
2021/06/09 06:33:54;;;;;;;1.87;1.63;;;20.30;99.90;;;;;;5093094;28;20423;-87
2021/06/09 06:36:22;;;;;;;2.20;1.60;;;20.20;99.90;;;;;;5092775;28;20408;-86
2021/06/09 06:38:49;;;;;;;3.00;1.40;;;20.50;99.90;;;;;;5091812;28;20780;-86
2021/06/09 06:41:16;;;;;;;1.50;1.07;;;21.00;99.90;;;;;;5093190;28;20516;-88
2021/06/09 06:43:42;;;;;;;2.63;1.00;;;21.00;1.00;;;;;;5091972;28;20442;-86
2021/06/09 06:46:17;;;;;;;2.50;1.47;;;21.00;99.90;;;;;;5092971;28;20413;-86
2021/06/09 06:48:46;;;;;;;1.90;0.90;;;21.90;1.00;;;;;;5093020;28;20217;-87
2021/06/09 06:51:13;;;;;;;1.30;1.20;;;22.10;99.90;;;;;;5091441;28;20824;-86
2021/06/09 06:53:44;;;;;;;5.03;1.17;;;22.00;99.90;;;;;;5096641;28;20538;-87
2021/06/09 06:56:13;;;;;;;1.77;1.07;;;22.30;99.90;;;;;;5096955;28;20405;-86
2021/06/09 06:58:39;;;;;;;1.73;0.90;;;23.80;99.90;;;;;;5097013;28;20449;-89
2021/06/09 07:01:05;;;;;;;2.10;0.80;;;24.30;1.00;;;;;;5095912;28;20417;-86
2021/06/09 07:03:33;;;;;;;1.53;0.93;;;25.20;1.00;;;;;;5095687;28;20219;-89
2021/06/09 07:05:59;;;;;;;1.83;1.00;;;25.20;99.90;;;;;;5096543;28;20464;-87
2021/06/09 07:08:25;;;;;;;1.97;0.70;;;25.70;99.90;;;;;;5096825;28;20464;-87
2021/06/09 07:10:51;;;;;;;1.53;1.10;;;26.10;99.90;;;;;;5095645;28;20252;-87
2021/06/09 07:13:18;;;;;;;2.40;0.97;;;26.50;99.90;;;;;;5096834;28;20432;-90
2021/06/09 07:15:46;;;;;;;1.20;0.80;;;26.50;99.90;;;;;;5096986;28;20475;-90
2021/06/09 07:18:12;;;;;;;2.67;0.67;;;26.50;99.90;;;;;;5097001;28;20426;-89
2021/06/09 07:20:39;;;;;;;1.27;0.80;;;26.80;99.90;;;;;;5096266;28;20461;-90
2021/06/09 07:23:04;;;;;;;1.30;0.80;;;26.60;99.90;;;;;;5097557;28;20407;-90
2021/06/09 07:25:31;;;;;;;1.63;1.33;;;26.90;99.90;;;;;;5096473;28;20425;-90
2021/06/09 07:28:02;;;;;;;2.00;0.73;;;26.00;99.90;;;;;;5096877;28;20215;-89
2021/06/09 07:30:31;;;;;;;1.53;0.80;;;26.80;99.90;;;;;;5095650;28;20410;-90
2021/06/09 07:32:57;;;;;;;0.90;0.40;;;26.90;99.90;;;;;;5096651;28;20414;-92
2021/06/09 07:35:22;;;;;;;2.23;0.90;;;27.10;99.90;;;;;;5096950;28;20791;-91
2021/06/09 07:37:51;;;;;;;1.47;0.40;;;26.80;99.90;;;;;;5095036;28;20172;-90
2021/06/09 07:40:25;;;;;;;3.07;0.97;;;27.50;99.90;;;;;;5096305;28;20637;-88
2021/06/09 07:42:57;;;;;;;1.53;0.60;;;27.30;90.60;;;;;;5094561;28;20468;-86
2021/06/09 07:45:24;;;;;;;1.90;0.93;;;27.60;89.70;;;;;;5095858;28;20418;-89
2021/06/09 07:47:52;;;;;;;1.77;0.70;;;27.70;77.50;;;;;;5096825;28;20477;-86
2021/06/09 07:50:27;;;;;;;1.50;0.73;;;28.00;80.50;;;;;;5097195;28;20406;-88
2021/06/09 07:53:04;;;;;;;1.30;0.70;;;27.30;52.00;;;;;;5095404;28;20846;-89
2021/06/09 07:55:31;;;;;;;1.60;0.60;;;27.80;63.50;;;;;;5095364;28;20416;-90
2021/06/09 07:57:57;;;;;;;2.47;1.10;;;27.90;47.30;;;;;;5095754;28;20501;-89
2021/06/09 08:00:23;;;;;;;2.50;0.70;;;28.20;61.70;;;;;;5094131;28;20418;-87
2021/06/09 08:02:49;;;;;;;1.33;0.73;;;28.20;50.90;;;;;;5095886;28;20422;-87
2021/06/09 08:05:15;;;;;;;2.07;0.70;;;28.40;63.70;;;;;;5093697;28;20207;-89
2021/06/09 08:07:41;;;;;;;2.30;0.50;;;28.50;52.00;;;;;;5095156;28;20523;-86
2021/06/09 08:10:09;;;;;;;0.77;0.63;;;28.50;54.30;;;;;;5094388;28;20183;-90
2021/06/09 08:12:35;;;;;;;1.90;1.17;;;28.30;57.80;;;;;;5066054;28;20927;-88
2021/06/09 08:15:03;;;;;;;1.77;0.60;;;28.70;85.30;;;;;;5056737;28;20506;-85
2021/06/09 08:17:29;;;;;;;1.53;0.73;;;28.30;60.40;;;;;;5074521;28;20507;-86
2021/06/09 08:19:54;;;;;;;1.53;0.70;;;28.40;71.50;;;;;;5056983;28;20778;-85
2021/06/09 08:22:20;;;;;;;2.03;1.00;;;29.00;60.00;;;;;;5074139;28;20400;-92
2021/06/09 08:24:46;;;;;;;1.70;0.87;;;29.00;45.90;;;;;;5075833;28;20574;-91
2021/06/09 08:27:11;;;;;;;2.47;2.07;;;29.00;47.80;;;;;;5055092;28;20172;-86
2021/06/09 08:29:38;;;;;;;2.13;1.27;;;28.70;43.80;;;;;;5070453;28;20215;-86
2021/06/09 08:32:06;;;;;;;1.20;0.90;;;29.00;50.70;;;;;;5071784;28;20628;-85
2021/06/09 08:34:32;;;;;;;2.13;1.23;;;28.70;27.80;;;;;;5073485;28;20407;-88
2021/06/09 08:36:58;;;;;;;2.60;0.93;;;28.70;32.60;;;;;;5075221;28;20777;-89
2021/06/09 08:39:26;;;;;;;1.37;0.77;;;29.40;37.30;;;;;;5070289;28;20456;-94
2021/06/09 08:41:54;;;;;;;1.93;0.80;;;29.40;44.50;;;;;;5068120;28;20505;-88
2021/06/09 08:44:21;;;;;;;2.10;1.23;;;29.40;34.80;;;;;;5073751;28;20442;-84
2021/06/09 08:46:48;;;;;;;1.57;0.97;;;29.20;25.50;;;;;;5073049;28;20588;-85
2021/06/09 08:49:16;;;;;;;1.00;0.80;;;29.50;26.20;;;;;;5073746;28;20524;-85
2021/06/09 08:51:43;;;;;;;1.63;0.63;;;29.20;41.00;;;;;;5073202;28;20486;-85
2021/06/09 08:54:09;;;;;;;1.13;0.77;;;29.40;39.40;;;;;;5055745;28;20424;-85
2021/06/09 08:56:37;;;;;;;1.70;0.97;;;29.60;40.10;;;;;;5073477;28;20418;-86
2021/06/09 08:59:03;;;;;;;0.90;0.70;;;29.80;28.30;;;;;;5073358;28;20795;-88
2021/06/09 09:01:33;;;;;;;1.67;0.87;;;29.70;34.20;;;;;;5073600;28;20495;-87
2021/06/09 09:04:00;;;;;;;0.80;0.70;;;30.00;20.20;;;;;;5073398;28;20938;-88
2021/06/09 09:06:26;;;;;;;0.93;0.87;;;30.80;23.80;;;;;;5068785;28;20419;-87
2021/06/09 09:08:53;;;;;;;1.50;1.10;;;30.10;5.30;;;;;;5055160;28;20501;-90
2021/06/09 09:11:23;;;;;;;1.10;0.80;;;30.60;6.10;;;;;;5070283;28;20205;-85
2021/06/09 09:13:49;;;;;;;1.40;0.70;;;30.20;5.60;;;;;;5072967;28;21146;-85
2021/06/09 09:16:15;;;;;;;2.67;1.00;;;29.50;1.00;;;;;;5073072;28;20396;-85
2021/06/09 09:18:48;;;;;;;1.93;1.20;;;29.80;4.30;;;;;;5073110;28;20410;-86
2021/06/09 09:21:32;;;;;;;1.20;1.10;;;29.70;1.00;;;;;;5050601;28;20593;-85
2021/06/09 09:23:58;;;;;;;0.80;0.47;;;29.40;5.50;;;;;;5053935;28;20504;-86
2021/06/09 09:26:29;;;;;;;1.83;0.47;;;29.60;3.10;;;;;;5054712;28;20946;-84
2021/06/09 09:29:08;;;;;;;1.13;0.80;;;30.00;1.00;;;;;;5072918;28;20217;-86
2021/06/09 09:31:45;;;;;;;1.10;0.67;;;30.20;1.00;;;;;;5070572;28;20748;-84
2021/06/09 09:34:29;;;;;;;2.77;1.07;;;29.70;1.00;;;;;;5069863;28;20430;-84
2021/06/09 09:37:27;;;;;;;4.50;1.13;;;29.70;1.00;;;;;;5067468;28;20423;-84
2021/06/09 09:40:08;;;;;;;0.80;0.60;;;30.10;1.00;;;;;;5070328;28;20428;-84
2021/06/09 09:42:35;;;;;;;0.80;0.60;;;30.60;1.10;;;;;;5070850;28;20419;-85
2021/06/09 09:45:29;;;;;;;1.77;1.03;;;31.20;6.60;;;;;;5072131;28;20426;-84
2021/06/09 09:48:03;;;;;;;2.37;1.00;;;31.50;1.00;;;;;;5069509;28;20466;-85
2021/06/09 09:50:39;;;;;;;1.83;0.90;;;31.40;1.00;;;;;;5071822;28;20407;-85
2021/06/09 09:53:20;;;;;;;4.00;1.10;;;31.10;1.00;;;;;;5072887;28;20418;-86
2021/06/09 09:56:09;;;;;;;0.70;0.50;;;31.10;1.00;;;;;;5072140;28;20487;-85
2021/06/09 09:58:54;;;;;;;1.00;0.73;;;31.70;1.00;;;;;;5054127;28;20410;-84
2021/06/09 10:01:23;;;;;;;1.40;0.50;;;32.00;1.00;;;;;;5070982;28;20981;-84
2021/06/09 10:03:51;;;;;;;2.43;1.27;;;31.80;1.00;;;;;;5072432;28;20993;-85
2021/06/09 10:06:26;;;;;;;1.80;1.10;;;32.00;1.00;;;;;;5054448;28;20418;-84
2021/06/09 10:08:54;;;;;;;1.40;0.83;;;31.30;1.00;;;;;;5072498;28;20531;-84
2021/06/09 10:11:21;;;;;;;1.30;0.93;;;30.60;1.00;;;;;;5072330;28;20443;-84
2021/06/09 10:13:47;;;;;;;1.33;0.80;;;31.00;1.00;;;;;;5072394;28;20775;-84
2021/06/09 10:16:34;;;;;;;1.40;1.00;;;31.40;1.00;;;;;;5051781;28;20419;-84
2021/06/09 10:19:10;;;;;;;1.83;1.00;;;31.50;1.00;;;;;;5070449;28;20414;-84
2021/06/09 10:21:45;;;;;;;1.30;0.97;;;31.40;1.00;;;;;;5065962;28;20758;-84
2021/06/09 10:24:11;;;;;;;1.47;0.83;;;30.70;1.00;;;;;;5072234;28;20406;-84
2021/06/09 10:26:41;;;;;;;1.00;0.70;;;31.00;1.00;;;;;;5071684;28;20945;-84
2021/06/09 10:29:16;;;;;;;1.70;0.87;;;31.50;1.00;;;;;;5072110;28;20473;-84
2021/06/09 10:31:54;;;;;;;1.50;1.00;;;32.20;1.00;;;;;;5070173;28;20403;-85
2021/06/09 10:34:23;;;;;;;2.10;1.40;;;31.50;1.00;;;;;;5072227;28;20413;-84
2021/06/09 10:36:50;;;;;;;2.40;1.17;;;30.60;1.00;;;;;;5069498;28;20922;-84
2021/06/09 10:39:17;;;;;;;2.40;1.33;;;30.00;1.00;;;;;;5072059;28;20415;-84
2021/06/09 10:41:46;;;;;;;1.30;1.00;;;29.70;1.00;;;;;;5072043;28;20438;-85
2021/06/09 10:44:13;;;;;;;2.83;0.97;;;29.10;1.00;;;;;;5072133;28;20490;-84
2021/06/09 10:46:43;;;;;;;4.10;1.57;;;29.60;1.00;;;;;;5072040;28;20494;-84
2021/06/09 10:49:13;;;;;;;2.80;1.37;;;29.90;1.00;;;;;;5072474;28;20469;-84
2021/06/09 10:51:38;;;;;;;1.90;1.30;;;30.80;1.00;;;;;;5071746;28;20468;-84
2021/06/09 10:54:10;;;;;;;1.60;1.13;;;31.20;1.00;;;;;;5071563;28;20931;-84
2021/06/09 10:56:38;;;;;;;1.20;1.10;;;31.60;1.00;;;;;;5068823;28;20185;-83
2021/06/09 10:59:04;;;;;;;2.53;1.60;;;30.50;1.00;;;;;;5070162;28;20411;-86
2021/06/09 11:01:30;;;;;;;3.70;1.57;;;29.90;1.00;;;;;;5071014;28;20503;-84
2021/06/09 11:03:59;;;;;;;1.53;1.20;;;29.90;1.00;;;;;;5071716;28;20422;-84
2021/06/09 11:06:46;;;;;;;4.47;1.07;;;30.60;1.00;;;;;;5036598;28;20415;-84
2021/06/09 11:09:14;;;;;;;2.23;1.33;;;31.10;1.00;;;;;;5071107;28;20497;-84
2021/06/09 11:11:40;;;;;;;3.43;1.33;;;30.40;1.00;;;;;;5071655;28;20503;-85
2021/06/09 11:14:24;;;;;;;5.33;1.67;;;31.40;1.00;;;;;;5054972;28;20581;-84
2021/06/09 11:16:54;;;;;;;1.20;1.10;;;32.00;1.00;;;;;;5072426;28;20680;-84
2021/06/09 11:19:42;;;;;;;2.13;1.47;;;31.70;1.00;;;;;;5072110;28;20407;-87
2021/06/09 11:22:23;;;;;;;2.47;0.93;;;31.50;1.00;;;;;;5072164;28;20411;-84
2021/06/09 11:25:12;;;;;;;2.30;1.17;;;32.30;1.00;;;;;;5071111;28;20423;-85
2021/06/09 11:27:47;;;;;;;3.67;1.70;;;32.30;1.00;;;;;;5071082;28;20462;-85
2021/06/09 11:30:25;;;;;;;2.80;1.40;;;32.60;1.00;;;;;;5069909;28;20399;-85
2021/06/09 11:32:56;;;;;;;1.83;1.20;;;32.30;1.00;;;;;;5051848;28;20549;-85
2021/06/09 11:35:46;;;;;;;2.30;1.43;;;32.60;1.00;;;;;;5065693;28;20422;-85
2021/06/09 11:38:11;;;;;;;3.00;1.50;;;32.80;1.00;;;;;;5071142;28;20907;-86
2021/06/09 11:40:50;;;;;;;1.57;1.47;;;33.30;1.00;;;;;;5075612;28;20431;-85
2021/06/09 11:43:26;;;;;;;1.77;1.67;;;32.90;1.00;;;;;;5075408;28;20173;-85
2021/06/09 11:45:55;;;;;;;1.73;1.13;;;31.70;1.00;;;;;;5073824;28;20529;-85
2021/06/09 11:48:24;;;;;;;2.97;1.30;;;31.30;1.00;;;;;;5075821;28;20512;-84
2021/06/09 11:50:54;;;;;;;1.13;1.03;;;30.70;1.00;;;;;;5074076;28;20425;-83
2021/06/09 11:53:42;;;;;;;0.90;0.80;;;30.10;1.00;;;;;;5048950;28;20439;-84
2021/06/09 11:56:23;;;;;;;1.97;1.23;;;29.50;1.00;;;;;;5072393;28;20529;-84
2021/06/09 11:59:04;;;;;;;2.63;1.13;;;29.30;1.00;;;;;;5075230;28;20411;-83
2021/06/09 12:01:42;;;;;;;4.30;1.53;;;29.10;1.00;;;;;;5075293;28;20415;-83
2021/06/09 12:04:19;;;;;;;3.70;1.93;;;30.30;3.10;;;;;;5075189;28;20403;-83
2021/06/09 12:07:02;;;;;;;2.37;1.20;;;30.40;1.00;;;;;;5074896;28;20528;-84
2021/06/09 12:09:40;;;;;;;4.63;1.60;;;31.50;14.90;;;;;;5075025;28;20808;-86
2021/06/09 12:12:16;;;;;;;1.73;1.63;;;32.40;1.80;;;;;;5074936;28;20857;-86
2021/06/09 12:14:48;;;;;;;1.60;1.20;;;32.30;1.00;;;;;;5057007;28;20451;-85
2021/06/09 12:17:15;;;;;;;1.40;1.20;;;32.00;1.00;;;;;;5074999;28;20442;-85
2021/06/09 12:19:49;;;;;;;1.80;1.43;;;31.40;1.00;;;;;;5074644;28;20415;-85
2021/06/09 12:22:19;;;;;;;3.37;1.87;;;30.40;1.00;;;;;;5074819;28;20402;-85
2021/06/09 12:24:58;;;;;;;3.00;1.60;;;29.70;1.00;;;;;;5074790;28;20407;-85
2021/06/09 12:27:23;;;;;;;1.30;1.20;;;29.10;1.00;;;;;;5074681;28;20502;-85
2021/06/09 12:29:49;;;;;;;2.80;1.67;;;28.90;1.00;;;;;;5074354;28;20416;-84
2021/06/09 12:32:41;;;;;;;2.30;1.40;;;28.80;1.00;;;;;;5074376;28;20538;-85
2021/06/09 12:35:09;;;;;;;1.93;1.20;;;28.50;1.00;;;;;;5053999;28;20169;-84
2021/06/09 12:37:37;;;;;;;3.13;1.93;;;28.40;1.00;;;;;;5072910;28;20914;-85
2021/06/09 12:40:13;;;;;;;1.80;1.50;;;28.60;1.00;;;;;;5038788;28;20415;-84
2021/06/09 12:42:46;;;;;;;2.90;1.80;;;29.30;1.00;;;;;;5074074;28;20407;-85
2021/06/09 12:45:12;;;;;;;1.40;1.30;;;29.90;1.00;;;;;;5074883;28;20822;-84
2021/06/09 12:47:40;;;;;;;2.17;1.60;;;30.40;1.00;;;;;;5073619;28;20473;-84
2021/06/09 12:50:27;;;;;;;1.87;1.60;;;31.10;1.00;;;;;;5073508;28;20415;-84
2021/06/09 12:53:01;;;;;;;2.43;1.90;;;31.30;1.00;;;;;;5055497;28;20789;-85
2021/06/09 12:55:33;;;;;;;1.93;1.80;;;30.50;1.00;;;;;;5056749;28;20423;-84
2021/06/09 12:58:02;;;;;;;2.10;1.57;;;30.80;1.00;;;;;;5074556;28;20450;-85
2021/06/09 13:00:36;;;;;;;2.67;1.60;;;31.60;1.00;;;;;;5074604;28;20790;-84
2021/06/09 13:03:11;;;;;;;2.33;2.13;;;32.40;1.00;;;;;;5074471;28;20418;-86
2021/06/09 13:05:40;;;;;;;3.43;3.23;;;31.70;1.00;;;;;;5056136;28;20917;-85
2021/06/09 13:08:23;;;;;;;1.90;1.43;;;31.40;1.00;;;;;;5074206;28;20455;-84